Wetterdaten: Freitag, 24.06.2016
Datum Zeit Temp. A. Mod.Schuppen Aussentemp2 Feuchte A. Luftdruck Regen Wind Richtung Richtung Sonnenschein Helligkeit Solar
24.06.2016 00:00 20,4 C 12,0 C 23,0 C 83 % 1016,7 hPa 0,0 l/m 18,4 km/h (3 Bft) N-NW67.5 345 0 min 0 lux 0 W/m
24.06.2016 00:04 20,4 C 12,0 C 23,0 C 83 % 1015,7 hPa 0,0 l/m 16,7 km/h (3 Bft) N-NO45 20 0 min 0 lux 0 W/m
24.06.2016 00:10 20,3 C 12,0 C 23,0 C 83 % 1015,7 hPa 0,0 l/m 16,2 km/h (3 Bft) NO22.5 40 0 min 0 lux 0 W/m
24.06.2016 00:15 20,3 C 12,0 C 22,9 C 83 % 1015,7 hPa 0,0 l/m 14,5 km/h (3 Bft) NO22.5 35 0 min 0 lux 0 W/m
24.06.2016 00:20 20,3 C 12,0 C 22,9 C 83 % 1015,7 hPa 0,0 l/m 11,1 km/h (2 Bft) NO22.5 45 0 min 0 lux 0 W/m
24.06.2016 00:25 20,2 C 12,0 C 22,8 C 83 % 1015,7 hPa 0,0 l/m 12,1 km/h (2 Bft) NO22.5 40 0 min 0 lux 0 W/m
24.06.2016 00:30 20,1 C 12,0 C 22,8 C 83 % 1014,7 hPa 0,0 l/m 10,6 km/h (2 Bft) NO22.5 50 0 min 0 lux 0 W/m
24.06.2016 00:35 20,1 C 12,0 C 22,8 C 83 % 1014,7 hPa 0,0 l/m 10,6 km/h (2 Bft) NO22.5 55 0 min 0 lux 0 W/m
24.06.2016 00:40 20,0 C 12,0 C 22,6 C 83 % 1014,7 hPa 0,0 l/m 10,9 km/h (2 Bft) O22.5 80 0 min 0 lux 0 W/m
24.06.2016 00:45 20,1 C 12,0 C 22,9 C 83 % 1014,7 hPa 0,0 l/m 10,5 km/h (2 Bft) O-NO22.5 75 0 min 0 lux 0 W/m
24.06.2016 00:50 20,1 C 12,0 C 22,7 C 83 % 1014,7 hPa 0,0 l/m 10,8 km/h (2 Bft) O45 90 0 min 0 lux 0 W/m
24.06.2016 00:55 20,0 C 12,0 C 22,7 C 83 % 1014,7 hPa 0,0 l/m 11,7 km/h (2 Bft) O45 90 0 min 0 lux 0 W/m
24.06.2016 01:00 20,0 C 12,0 C 22,6 C 84 % 1014,7 hPa 0,0 l/m 7,4 km/h (2 Bft) O67.5 95 0 min 0 lux 0 W/m
24.06.2016 01:05 19,9 C 12,0 C 22,5 C 84 % 1014,7 hPa 0,0 l/m 9,7 km/h (2 Bft) O22.5 80 0 min 0 lux 0 W/m
24.06.2016 01:10 19,9 C 12,0 C 22,5 C 84 % 1014,7 hPa 0,0 l/m 9,4 km/h (2 Bft) O45 90 0 min 0 lux 0 W/m
24.06.2016 01:15 19,9 C 12,0 C 22,5 C 84 % 1014,7 hPa 0,0 l/m 0,9 km/h (0 Bft) O22.5 100 0 min 0 lux 0 W/m
24.06.2016 01:19 19,9 C 12,0 C 22,4 C 84 % 1014,7 hPa 0,0 l/m 0,1 km/h (0 Bft) O-SO 115 0 min 0 lux 0 W/m
24.06.2016 01:25 19,9 C 12,0 C 22,3 C 84 % 1014,7 hPa 0,0 l/m 0,1 km/h (0 Bft) O-SO 115 0 min 0 lux 0 W/m
24.06.2016 01:30 19,9 C 12,0 C 22,5 C 84 % 1014,7 hPa 0,0 l/m 0,0 km/h (0 Bft) O-SO 115 0 min 0 lux 0 W/m
24.06.2016 01:35 19,9 C 12,0 C 22,5 C 84 % 1014,7 hPa 0,0 l/m 0,9 km/h (0 Bft) O-SO 115 0 min 0 lux 0 W/m
24.06.2016 01:40 19,8 C 12,0 C 22,3 C 84 % 1014,7 hPa 0,0 l/m 9,2 km/h (2 Bft) O22.5 90 0 min 0 lux 0 W/m
24.06.2016 01:45 19,8 C 12,0 C 22,3 C 85 % 1013,7 hPa 0,0 l/m 3,3 km/h (1 Bft) O-SO 120 0 min 0 lux 0 W/m
24.06.2016 01:50 19,7 C 12,0 C 22,3 C 85 % 1014,7 hPa 0,0 l/m 4,2 km/h (1 Bft) SO 125 0 min 0 lux 0 W/m
24.06.2016 01:55 19,7 C 12,0 C 22,2 C 85 % 1014,7 hPa 0,0 l/m 12,2 km/h (2 Bft) O-SO22.5 110 0 min 0 lux 0 W/m
24.06.2016 02:00 19,7 C 12,0 C 22,1 C 85 % 1014,7 hPa 0,0 l/m 0,6 km/h (0 Bft) O 100 0 min 0 lux 0 W/m
24.06.2016 02:05 19,5 C 12,0 C 22,3 C 85 % 1014,7 hPa 0,0 l/m 9,5 km/h (2 Bft) N67.5 350 0 min 0 lux 0 W/m
24.06.2016 02:10 19,5 C 12,0 C 21,7 C 86 % 1015,7 hPa 0,0 l/m 14,2 km/h (3 Bft) W-NW22.5 300 0 min 0 lux 0 W/m
24.06.2016 02:15 19,6 C 12,0 C 21,9 C 86 % 1015,7 hPa 0,0 l/m 13,1 km/h (3 Bft) W-NW22.5 285 0 min 0 lux 0 W/m
24.06.2016 02:20 19,6 C 12,0 C 22,1 C 86 % 1015,7 hPa 0,0 l/m 20,1 km/h (4 Bft) W-NW22.5 295 0 min 0 lux 0 W/m
24.06.2016 02:25 19,8 C 12,0 C 22,2 C 86 % 1015,7 hPa 0,0 l/m 13,1 km/h (3 Bft) W22.5 270 0 min 0 lux 0 W/m
24.06.2016 02:30 19,8 C 12,0 C 22,2 C 86 % 1015,7 hPa 0,0 l/m 4,5 km/h (1 Bft) W-NW 285 0 min 0 lux 0 W/m
24.06.2016 02:35 19,9 C 12,0 C 22,1 C 86 % 1015,7 hPa 0,0 l/m 9,3 km/h (2 Bft) N67.5 10 0 min 0 lux 0 W/m
24.06.2016 02:40 19,9 C 12,0 C 21,9 C 86 % 1015,7 hPa 0,0 l/m 0,9 km/h (0 Bft) NO45 45 0 min 0 lux 0 W/m
24.06.2016 02:45 19,9 C 12,0 C 21,9 C 87 % 1015,7 hPa 0,1 l/m 10,1 km/h (2 Bft) W-NW45 285 0 min 0 lux 0 W/m
24.06.2016 02:50 19,9 C 12,0 C 22,0 C 87 % 1015,7 hPa 0,0 l/m 12,2 km/h (2 Bft) W-SW22.5 240 0 min 0 lux 0 W/m
24.06.2016 02:55 19,8 C 12,0 C 22,0 C 87 % 1015,7 hPa 0,0 l/m 3,0 km/h (1 Bft) W-SW 245 0 min 0 lux 0 W/m
24.06.2016 02:59 19,8 C 12,0 C 21,9 C 87 % 1015,7 hPa 0,1 l/m 11,8 km/h (2 Bft) N67.5 355 0 min 0 lux 0 W/m
24.06.2016 03:05 19,9 C 12,0 C 21,9 C 87 % 1015,7 hPa 0,0 l/m 11,1 km/h (2 Bft) N67.5 10 0 min 0 lux 0 W/m
24.06.2016 03:10 19,8 C 12,0 C 21,9 C 88 % 1015,7 hPa 0,0 l/m 11,3 km/h (2 Bft) W45 270 0 min 0 lux 0 W/m
24.06.2016 03:15 19,8 C 12,0 C 21,8 C 87 % 1015,7 hPa 0,5 l/m 7,8 km/h (2 Bft) O45 95 0 min 0 lux 0 W/m
24.06.2016 03:20 19,8 C 12,0 C 22,1 C 87 % 1014,7 hPa 0,1 l/m 0,9 km/h (0 Bft) O 85 0 min 0 lux 0 W/m
24.06.2016 03:25 19,8 C 12,0 C 21,5 C 88 % 1015,7 hPa 0,1 l/m 16,3 km/h (3 Bft) W22.5 270 0 min 0 lux 0 W/m
24.06.2016 03:30 19,7 C 12,0 C 21,8 C 88 % 1015,7 hPa 0,1 l/m 16,8 km/h (3 Bft) W-NW22.5 300 0 min 0 lux 0 W/m
24.06.2016 03:35 19,7 C 12,0 C 21,9 C 88 % 1015,7 hPa 0,0 l/m 0,4 km/h (0 Bft) W67.5 270 0 min 0 lux 0 W/m
24.06.2016 03:40 19,7 C 12,0 C 21,8 C 88 % 1014,7 hPa 0,6 l/m 5,9 km/h (2 Bft) SW 220 0 min 0 lux 0 W/m
24.06.2016 03:45 19,8 C 12,0 C 21,8 C 88 % 1014,7 hPa 0,0 l/m 0,6 km/h (0 Bft) O 85 0 min 0 lux 0 W/m
24.06.2016 03:50 19,8 C 12,0 C 21,8 C 88 % 1014,7 hPa 0,1 l/m 2,7 km/h (1 Bft) O 85 0 min 0 lux 0 W/m
24.06.2016 03:55 19,7 C 12,0 C 21,8 C 88 % 1014,7 hPa 0,0 l/m 4,3 km/h (1 Bft) O 85 0 min 0 lux 0 W/m
24.06.2016 04:00 19,8 C 12,0 C 21,5 C 88 % 1014,7 hPa 0,0 l/m 1,0 km/h (0 Bft) O67.5 90 0 min 0 lux 0 W/m
24.06.2016 04:05 19,8 C 12,0 C 21,8 C 89 % 1015,7 hPa 0,0 l/m 1,3 km/h (1 Bft) W-SW 250 0 min 0 lux 0 W/m
24.06.2016 04:10 19,8 C 12,0 C 21,9 C 88 % 1014,7 hPa 0,0 l/m 0,1 km/h (0 Bft) W-SW 250 0 min 0 lux 0 W/m
24.06.2016 04:15 19,7 C 12,0 C 21,7 C 88 % 1014,7 hPa 0,0 l/m 13,3 km/h (3 Bft) O22.5 80 0 min 0 lux 0 W/m
24.06.2016 04:20 19,8 C 12,0 C 21,7 C 88 % 1014,7 hPa 0,0 l/m 1,6 km/h (1 Bft) O45 90 0 min 0 lux 0 W/m
24.06.2016 04:25 19,8 C 12,0 C 21,8 C 88 % 1014,7 hPa 0,0 l/m 11,5 km/h (2 Bft) O22.5 80 0 min 0 lux 0 W/m
24.06.2016 04:30 19,7 C 12,0 C 21,7 C 88 % 1014,7 hPa 0,0 l/m 11,3 km/h (2 Bft) O22.5 80 0 min 0 lux 0 W/m
24.06.2016 04:35 19,8 C 12,0 C 21,8 C 88 % 1014,7 hPa 0,0 l/m 6,4 km/h (2 Bft) O-NO 75 0 min 0 lux 0 W/m
24.06.2016 04:40 19,8 C 12,0 C 21,5 C 88 % 1014,7 hPa 0,0 l/m 5,3 km/h (1 Bft) NO67.5 45 0 min 0 lux 0 W/m
24.06.2016 04:45 19,8 C 12,0 C 21,6 C 88 % 1014,7 hPa 0,0 l/m 6,8 km/h (2 Bft) NW 305 0 min 0 lux 0 W/m
24.06.2016 04:50 19,7 C 12,0 C 21,7 C 88 % 1014,7 hPa 0,0 l/m 5,9 km/h (2 Bft) NO 35 0 min 0 lux 0 W/m
24.06.2016 04:55 19,7 C 12,0 C 21,7 C 88 % 1014,7 hPa 0,0 l/m 5,4 km/h (2 Bft) NO 35 0 min 28 lux 0 W/m
24.06.2016 05:00 19,7 C 12,0 C 21,5 C 88 % 1014,7 hPa 0,0 l/m 0,0 km/h (0 Bft) NO 35 0 min 42 lux 0 W/m
24.06.2016 05:05 19,6 C 12,0 C 21,5 C 88 % 1014,7 hPa 0,0 l/m 7,4 km/h (2 Bft) O-NO22.5 60 0 min 86 lux 0 W/m
24.06.2016 05:10 19,6 C 12,0 C 21,5 C 88 % 1014,7 hPa 0,0 l/m 5,7 km/h (2 Bft) O 80 0 min 154 lux 0 W/m
24.06.2016 05:15 19,6 C 12,0 C 21,5 C 88 % 1013,7 hPa 0,0 l/m 10,2 km/h (2 Bft) O-NO45 75 0 min 244 lux 0 W/m
24.06.2016 05:20 19,6 C 12,0 C 21,5 C 88 % 1013,7 hPa 0,0 l/m 14,7 km/h (3 Bft) O-NO22.5 65 0 min 360 lux 0 W/m
24.06.2016 05:25 19,6 C 12,0 C 21,5 C 88 % 1013,7 hPa 0,0 l/m 7,0 km/h (2 Bft) NO22.5 35 0 min 455 lux 3 W/m
24.06.2016 05:30 19,6 C 12,0 C 21,5 C 88 % 1013,7 hPa 0,0 l/m 3,2 km/h (1 Bft) O-NO45 75 0 min 607 lux 4 W/m
24.06.2016 05:35 19,6 C 12,0 C 21,3 C 88 % 1013,7 hPa 0,0 l/m 0,3 km/h (0 Bft) N-NO22.5 15 0 min 657 lux 4 W/m
24.06.2016 05:40 19,4 C 12,0 C 21,4 C 88 % 1014,7 hPa 0,0 l/m 4,2 km/h (1 Bft) N 5 0 min 948 lux 6 W/m
24.06.2016 05:45 19,4 C 12,0 C 21,3 C 88 % 1014,7 hPa 0,0 l/m 0,0 km/h (0 Bft) N 360 0 min 996 lux 7 W/m
24.06.2016 05:50 19,5 C 12,0 C 21,3 C 88 % 1014,7 hPa 0,0 l/m 0,0 km/h (0 Bft) N 360 0 min 858 lux 6 W/m
24.06.2016 05:55 19,4 C 12,0 C 21,3 C 88 % 1014,7 hPa 0,0 l/m 4,4 km/h (1 Bft) N 350 0 min 1,17 klux 8 W/m
24.06.2016 06:00 19,4 C 12,0 C 21,4 C 88 % 1014,7 hPa 0,0 l/m 0,0 km/h (0 Bft) N-NW 345 0 min 2,07 klux 14 W/m
24.06.2016 06:05 19,5 C 12,0 C 21,3 C 88 % 1014,7 hPa 0,0 l/m 0,0 km/h (0 Bft) N-NW 345 0 min 3,48 klux 24 W/m
24.06.2016 06:10 19,6 C 12,0 C 21,3 C 88 % 1014,7 hPa 0,0 l/m 0,0 km/h (0 Bft) N-NW 345 0 min 3,45 klux 24 W/m
24.06.2016 06:15 19,6 C 12,0 C 21,4 C 88 % 1014,7 hPa 0,0 l/m 0,0 km/h (0 Bft) N-NW 345 0 min 3,79 klux 26 W/m
24.06.2016 06:20 19,6 C 12,0 C 21,1 C 88 % 1014,7 hPa 0,0 l/m 5,0 km/h (1 Bft) N-NW22.5 335 0 min 3,54 klux 24 W/m
24.06.2016 06:24 19,7 C 12,0 C 21,3 C 88 % 1014,7 hPa 0,0 l/m 5,1 km/h (1 Bft) NW 310 0 min 3,94 klux 27 W/m
24.06.2016 06:30 19,8 C 12,0 C 21,0 C 89 % 1015,7 hPa 0,0 l/m 23,2 km/h (4 Bft) W22.5 265 0 min 1,26 klux 9 W/m
24.06.2016 06:35 19,8 C 12,0 C 20,9 C 89 % 1015,7 hPa 0,0 l/m 35,7 km/h (5 Bft) W-NW45 285 0 min 4,12 klux 28 W/m
24.06.2016 06:40 19,6 C 12,0 C 21,2 C 89 % 1015,7 hPa 0,0 l/m 12,0 km/h (2 Bft) N45 355 0 min 4,02 klux 27 W/m
24.06.2016 06:44 19,6 C 12,0 C 21,3 C 89 % 1014,7 hPa 0,1 l/m 6,0 km/h (2 Bft) N-NO45 15 0 min 4,53 klux 31 W/m
24.06.2016 06:50 19,7 C 12,0 C 21,3 C 89 % 1014,7 hPa 0,0 l/m 8,7 km/h (2 Bft) N-NO22.5 20 0 min 4,62 klux 32 W/m
24.06.2016 06:55 19,7 C 12,0 C 21,0 C 89 % 1014,7 hPa 0,0 l/m 0,0 km/h (0 Bft) NO 35 0 min 5,09 klux 35 W/m
24.06.2016 07:00 19,8 C 12,0 C 20,6 C 89 % 1014,7 hPa 0,0 l/m 9,8 km/h (2 Bft) S-SO22.5 150 0 min 3,41 klux 23 W/m
24.06.2016 07:05 19,8 C 12,0 C 20,5 C 89 % 1015,7 hPa 0,0 l/m 13,0 km/h (3 Bft) S-SO22.5 160 0 min 3,55 klux 24 W/m
24.06.2016 07:10 19,8 C 12,0 C 20,4 C 89 % 1015,7 hPa 0,1 l/m 12,4 km/h (2 Bft) S-SO22.5 155 0 min 2,63 klux 18 W/m
24.06.2016 07:15 19,8 C 12,0 C 20,7 C 89 % 1015,7 hPa 0,0 l/m 10,1 km/h (2 Bft) S-SO22.5 160 0 min 1,97 klux 13 W/m
24.06.2016 07:20 19,8 C 12,0 C 21,0 C 89 % 1014,7 hPa 0,1 l/m 7,7 km/h (2 Bft) O22.5 85 0 min 1,61 klux 11 W/m
24.06.2016 07:25 19,8 C 12,0 C 21,0 C 89 % 1014,7 hPa 0,1 l/m 10,4 km/h (2 Bft) O45 90 0 min 1,78 klux 12 W/m
24.06.2016 07:29 19,7 C 12,0 C 20,8 C 89 % 1013,7 hPa 0,1 l/m 9,6 km/h (2 Bft) O-SO45 115 0 min 3,00 klux 21 W/m
24.06.2016 07:35 19,6 C 12,0 C 20,8 C 88 % 1013,7 hPa 0,0 l/m 12,4 km/h (2 Bft) O22.5 80 0 min 2,97 klux 20 W/m
24.06.2016 07:40 19,7 C 12,0 C 21,0 C 89 % 1013,7 hPa 0,0 l/m 11,6 km/h (2 Bft) O-NO22.5 70 0 min 3,23 klux 22 W/m
24.06.2016 07:45 19,7 C 12,0 C 21,0 C 89 % 1013,7 hPa 0,1 l/m 11,2 km/h (2 Bft) O-NO 75 0 min 5,42 klux 37 W/m
24.06.2016 07:50 19,8 C 12,0 C 21,0 C 88 % 1013,7 hPa 0,0 l/m 12,2 km/h (2 Bft) NO45 45 0 min 8,20 klux 56 W/m
24.06.2016 07:55 19,9 C 12,0 C 21,0 C 88 % 1013,7 hPa 0,0 l/m 6,7 km/h (2 Bft) N-NO 25 0 min 11,2 klux 77 W/m
24.06.2016 08:00 20,0 C 12,0 C 20,9 C 88 % 1013,7 hPa 0,0 l/m 4,1 km/h (1 Bft) N-NO 20 0 min 12,4 klux 85 W/m
24.06.2016 08:05 20,0 C 12,0 C 20,6 C 88 % 1013,7 hPa 0,0 l/m 4,6 km/h (1 Bft) N22.5 355 0 min 13,4 klux 92 W/m
24.06.2016 08:10 20,3 C 12,0 C 20,9 C 88 % 1013,7 hPa 0,0 l/m 8,5 km/h (2 Bft) W-NW22.5 290 0 min 17,8 klux 122 W/m
24.06.2016 08:14 20,3 C 12,0 C 21,0 C 88 % 1013,7 hPa 0,0 l/m 7,6 km/h (2 Bft) W-SW22.5 255 0 min 22,5 klux 154 W/m
24.06.2016 08:20 20,6 C 12,0 C 20,9 C 88 % 1014,7 hPa 0,0 l/m 10,0 km/h (2 Bft) W-SW22.5 240 0 min 9,6 klux 66 W/m
24.06.2016 08:25 20,5 C 12,0 C 20,8 C 87 % 1014,7 hPa 0,0 l/m 12,1 km/h (2 Bft) SW22.5 230 0 min 10,7 klux 73 W/m
24.06.2016 08:30 20,5 C 12,0 C 20,8 C 87 % 1014,7 hPa 0,0 l/m 12,6 km/h (3 Bft) SW22.5 225 0 min 29,1 klux 199 W/m
24.06.2016 08:35 20,6 C 12,0 C 21,0 C 88 % 1014,7 hPa 0,0 l/m 9,6 km/h (2 Bft) SW22.5 230 0 min 22,2 klux 152 W/m
24.06.2016 08:40 20,6 C 12,0 C 20,9 C 87 % 1014,7 hPa 0,0 l/m 10,1 km/h (2 Bft) SW 230 0 min 13,2 klux 90 W/m
24.06.2016 08:45 20,6 C 12,0 C 20,9 C 87 % 1014,7 hPa 0,0 l/m 12,3 km/h (2 Bft) W 265 0 min 11,4 klux 78 W/m
24.06.2016 08:50 20,6 C 12,0 C 21,0 C 87 % 1014,7 hPa 0,0 l/m 7,4 km/h (2 Bft) W-SW 255 0 min 19,8 klux 135 W/m
24.06.2016 08:55 20,7 C 12,0 C 21,1 C 87 % 1014,7 hPa 0,0 l/m 7,2 km/h (2 Bft) W 265 0 min 18,5 klux 127 W/m
24.06.2016 09:00 20,8 C 12,0 C 21,0 C 87 % 1014,6 hPa 0,0 l/m 10,1 km/h (2 Bft) W 275 0 min 12,6 klux 86 W/m
24.06.2016 09:05 20,8 C 12,0 C 20,7 C 87 % 1014,6 hPa 0,0 l/m 10,8 km/h (2 Bft) W 280 0 min 14,5 klux 99 W/m
24.06.2016 09:10 20,8 C 12,0 C 20,6 C 87 % 1014,6 hPa 0,0 l/m 9,5 km/h (2 Bft) W22.5 260 5 min 64,1 klux 438 W/m
24.06.2016 09:15 21,2 C 12,0 C 20,9 C 88 % 1014,6 hPa 0,0 l/m 8,3 km/h (2 Bft) W-NW 285 5 min 63,6 klux 435 W/m
24.06.2016 09:20 21,2 C 12,0 C 21,1 C 88 % 1014,6 hPa 0,0 l/m 9,7 km/h (2 Bft) W22.5 265 0 min 44,2 klux 302 W/m
24.06.2016 09:25 21,4 C 12,0 C 21,1 C 87 % 1014,6 hPa 0,0 l/m 4,6 km/h (1 Bft) W-SW 245 5 min 49,8 klux 341 W/m
24.06.2016 09:30 21,2 C 12,0 C 21,2 C 85 % 1014,6 hPa 0,0 l/m 5,4 km/h (2 Bft) W-SW 250 0 min 39,1 klux 267 W/m
24.06.2016 09:35 21,4 C 12,0 C 21,2 C 85 % 1014,6 hPa 0,0 l/m 0,6 km/h (0 Bft) W-SW 250 0 min 32,9 klux 225 W/m
24.06.2016 09:40 21,6 C 12,0 C 21,2 C 86 % 1014,6 hPa 0,0 l/m 4,6 km/h (1 Bft) W-SW 250 5 min 61,2 klux 419 W/m
24.06.2016 09:45 21,8 C 12,0 C 21,3 C 84 % 1014,6 hPa 0,0 l/m 7,4 km/h (2 Bft) SW22.5 215 5 min 72,3 klux 495 W/m
24.06.2016 09:50 22,0 C 12,0 C 21,3 C 83 % 1014,6 hPa 0,0 l/m 7,5 km/h (2 Bft) SW22.5 220 0 min 38,3 klux 262 W/m
24.06.2016 09:55 22,1 C 12,0 C 21,3 C 83 % 1014,6 hPa 0,0 l/m 10,1 km/h (2 Bft) W-SW22.5 240 5 min 62,5 klux 428 W/m
24.06.2016 10:00 22,2 C 12,0 C 21,3 C 82 % 1014,6 hPa 0,0 l/m 10,9 km/h (2 Bft) W-SW22.5 245 5 min 63,1 klux 432 W/m
24.06.2016 10:05 22,4 C 12,0 C 21,5 C 83 % 1014,6 hPa 0,0 l/m 11,8 km/h (2 Bft) W22.5 260 0 min 35,6 klux 244 W/m
24.06.2016 10:09 22,5 C 12,0 C 21,5 C 83 % 1014,6 hPa 0,0 l/m 13,1 km/h (3 Bft) W-SW22.5 255 4 min 77,4 klux 529 W/m
24.06.2016 10:15 22,8 C 12,0 C 21,5 C 82 % 1014,6 hPa 0,0 l/m 17,0 km/h (3 Bft) W-SW45 240 6 min 73,7 klux 504 W/m
24.06.2016 10:20 22,8 C 12,0 C 21,6 C 80 % 1014,6 hPa 0,0 l/m 14,4 km/h (3 Bft) W22.5 260 5 min 74,5 klux 510 W/m
24.06.2016 10:25 23,0 C 12,0 C 21,6 C 80 % 1014,6 hPa 0,0 l/m 12,0 km/h (2 Bft) SW22.5 230 5 min 77,0 klux 527 W/m
24.06.2016 10:30 23,1 C 12,0 C 21,7 C 78 % 1014,6 hPa 0,0 l/m 11,6 km/h (2 Bft) W-SW22.5 255 5 min 74,8 klux 512 W/m
24.06.2016 10:35 23,2 C 12,0 C 21,8 C 78 % 1015,6 hPa 0,0 l/m 5,5 km/h (2 Bft) W-SW 245 5 min 81,7 klux 559 W/m
24.06.2016 10:40 23,6 C 12,0 C 22,0 C 77 % 1015,6 hPa 0,0 l/m 10,9 km/h (2 Bft) SW45 230 5 min 82,1 klux 562 W/m
24.06.2016 10:45 23,5 C 12,0 C 21,9 C 76 % 1015,6 hPa 0,0 l/m 8,6 km/h (2 Bft) W22.5 265 0 min 22,0 klux 150 W/m
24.06.2016 10:50 23,3 C 12,0 C 21,7 C 77 % 1015,6 hPa 0,0 l/m 10,2 km/h (2 Bft) W-SW22.5 250 0 min 12,1 klux 83 W/m
24.06.2016 10:55 23,1 C 12,0 C 21,8 C 78 % 1015,6 hPa 0,0 l/m 8,8 km/h (2 Bft) SW22.5 220 0 min 12,8 klux 88 W/m
24.06.2016 11:00 23,0 C 12,0 C 21,8 C 78 % 1015,6 hPa 0,0 l/m 10,6 km/h (2 Bft) W45 265 0 min 15,6 klux 107 W/m
24.06.2016 11:05 23,0 C 12,0 C 21,8 C 78 % 1015,6 hPa 0,0 l/m 9,8 km/h (2 Bft) W-SW45 240 0 min 17,7 klux 121 W/m
24.06.2016 11:10 22,9 C 12,0 C 21,8 C 78 % 1015,6 hPa 0,0 l/m 14,1 km/h (3 Bft) SW22.5 235 0 min 19,1 klux 131 W/m
24.06.2016 11:15 22,9 C 12,0 C 21,8 C 78 % 1015,6 hPa 0,0 l/m 17,0 km/h (3 Bft) SW22.5 235 0 min 20,3 klux 139 W/m
24.06.2016 11:20 22,8 C 12,0 C 21,6 C 78 % 1015,6 hPa 0,0 l/m 14,1 km/h (3 Bft) W-SW45 240 0 min 16,1 klux 110 W/m
24.06.2016 11:25 22,8 C 12,0 C 21,8 C 79 % 1015,6 hPa 0,0 l/m 14,3 km/h (3 Bft) W-SW22.5 250 0 min 27,1 klux 185 W/m
24.06.2016 11:30 23,0 C 12,0 C 22,0 C 79 % 1015,6 hPa 0,0 l/m 11,5 km/h (2 Bft) W-SW22.5 245 0 min 37,9 klux 259 W/m
24.06.2016 11:35 23,3 C 12,0 C 22,1 C 78 % 1015,6 hPa 0,0 l/m 10,1 km/h (2 Bft) W-SW22.5 250 0 min 29,6 klux 202 W/m
24.06.2016 11:40 23,2 C 12,0 C 22,1 C 77 % 1015,6 hPa 0,0 l/m 13,4 km/h (3 Bft) W22.5 280 0 min 27,2 klux 186 W/m
24.06.2016 11:45 23,3 C 12,0 C 22,1 C 77 % 1015,6 hPa 0,0 l/m 12,9 km/h (3 Bft) W-NW22.5 290 0 min 35,9 klux 246 W/m
24.06.2016 11:49 23,5 C 12,0 C 22,3 C 76 % 1015,6 hPa 0,0 l/m 18,3 km/h (3 Bft) W22.5 270 0 min 39,5 klux 270 W/m
24.06.2016 11:55 23,6 C 12,0 C 22,3 C 74 % 1015,6 hPa 0,0 l/m 16,6 km/h (3 Bft) W45 260 0 min 50,7 klux 347 W/m
24.06.2016 12:00 23,8 C 12,0 C 22,2 C 76 % 1015,6 hPa 0,0 l/m 14,0 km/h (3 Bft) W22.5 280 0 min 40,0 klux 274 W/m
24.06.2016 12:05 23,7 C 12,0 C 22,2 C 74 % 1015,6 hPa 0,0 l/m 11,5 km/h (2 Bft) W 280 0 min 29,4 klux 201 W/m
24.06.2016 12:10 23,8 C 12,0 C 22,2 C 73 % 1015,6 hPa 0,0 l/m 14,9 km/h (3 Bft) NW22.5 310 0 min 51,3 klux 351 W/m
24.06.2016 12:15 23,9 C 12,0 C 22,5 C 73 % 1015,6 hPa 0,0 l/m 14,2 km/h (3 Bft) W45 260 0 min 38,8 klux 265 W/m
24.06.2016 12:20 23,9 C 12,0 C 22,6 C 73 % 1015,6 hPa 0,0 l/m 11,8 km/h (2 Bft) W22.5 275 0 min 43,9 klux 300 W/m
24.06.2016 12:25 24,1 C 12,0 C 22,8 C 74 % 1015,6 hPa 0,0 l/m 12,2 km/h (2 Bft) W-SW22.5 250 0 min 38,9 klux 266 W/m
24.06.2016 12:30 24,3 C 12,0 C 22,6 C 73 % 1015,6 hPa 0,0 l/m 12,2 km/h (2 Bft) W-SW22.5 250 0 min 34,2 klux 234 W/m
24.06.2016 12:35 24,1 C 12,0 C 22,6 C 73 % 1015,6 hPa 0,0 l/m 19,9 km/h (4 Bft) W-NW22.5 285 0 min 40,2 klux 275 W/m
24.06.2016 12:40 24,3 C 12,0 C 22,9 C 74 % 1015,6 hPa 0,0 l/m 13,6 km/h (3 Bft) W22.5 270 0 min 43,9 klux 300 W/m
24.06.2016 12:45 24,4 C 12,0 C 22,9 C 73 % 1015,6 hPa 0,0 l/m 14,2 km/h (3 Bft) W45 275 0 min 59,2 klux 405 W/m
24.06.2016 12:50 24,5 C 12,0 C 23,0 C 70 % 1015,6 hPa 0,0 l/m 13,7 km/h (3 Bft) W-NW22.5 300 0 min 57,3 klux 392 W/m
24.06.2016 12:55 24,8 C 12,0 C 23,4 C 72 % 1015,6 hPa 0,0 l/m 17,0 km/h (3 Bft) W45 270 5 min 81,3 klux 556 W/m
24.06.2016 12:59 24,7 C 12,0 C 23,1 C 72 % 1015,6 hPa 0,0 l/m 18,0 km/h (3 Bft) W-NW22.5 285 0 min 24,2 klux 166 W/m
24.06.2016 13:05 24,4 C 12,0 C 23,0 C 72 % 1015,6 hPa 0,0 l/m 17,0 km/h (3 Bft) W-NW22.5 285 0 min 43,7 klux 299 W/m
24.06.2016 13:10 24,5 C 12,0 C 23,0 C 74 % 1015,6 hPa 0,0 l/m 19,6 km/h (3 Bft) W22.5 280 0 min 37,9 klux 259 W/m
24.06.2016 13:15 24,2 C 12,0 C 22,9 C 74 % 1015,6 hPa 0,0 l/m 22,3 km/h (4 Bft) W-NW22.5 285 0 min 30,9 klux 211 W/m
24.06.2016 13:20 23,9 C 12,0 C 22,9 C 74 % 1015,6 hPa 0,0 l/m 20,8 km/h (4 Bft) W22.5 275 0 min 17,9 klux 122 W/m
24.06.2016 13:25 23,9 C 12,0 C 22,6 C 75 % 1015,6 hPa 0,0 l/m 14,8 km/h (3 Bft) W45 280 0 min 28,3 klux 194 W/m
24.06.2016 13:30 23,8 C 12,0 C 22,7 C 75 % 1015,6 hPa 0,0 l/m 19,0 km/h (3 Bft) W-NW22.5 285 0 min 45,8 klux 313 W/m
24.06.2016 13:35 24,2 C 12,0 C 22,7 C 76 % 1015,6 hPa 0,0 l/m 18,5 km/h (3 Bft) W-NW67.5 300 0 min 35,1 klux 240 W/m
24.06.2016 13:40 23,9 C 12,0 C 22,7 C 75 % 1015,6 hPa 0,0 l/m 23,8 km/h (4 Bft) NW22.5 310 0 min 19,4 klux 133 W/m
24.06.2016 13:44 23,9 C 12,0 C 22,3 C 75 % 1015,6 hPa 0,0 l/m 22,5 km/h (4 Bft) W-NW22.5 300 0 min 14,6 klux 100 W/m
24.06.2016 13:50 23,3 C 12,0 C 22,3 C 76 % 1015,6 hPa 0,0 l/m 19,3 km/h (3 Bft) W-NW22.5 290 0 min 24,6 klux 168 W/m
24.06.2016 13:55 23,3 C 12,0 C 22,3 C 77 % 1015,6 hPa 0,0 l/m 17,9 km/h (3 Bft) NW45 310 0 min 25,2 klux 172 W/m
24.06.2016 14:00 23,3 C 12,0 C 22,3 C 77 % 1015,6 hPa 0,0 l/m 16,8 km/h (3 Bft) W22.5 280 0 min 22,8 klux 156 W/m
24.06.2016 14:04 23,1 C 12,0 C 22,2 C 76 % 1015,6 hPa 0,0 l/m 22,8 km/h (4 Bft) W45 275 0 min 23,6 klux 161 W/m
24.06.2016 14:10 23,2 C 12,0 C 22,3 C 77 % 1015,6 hPa 0,0 l/m 20,0 km/h (4 Bft) W-NW22.5 290 0 min 33,7 klux 231 W/m
24.06.2016 14:15 23,3 C 12,0 C 22,3 C 76 % 1015,6 hPa 0,0 l/m 20,6 km/h (4 Bft) W45 275 0 min 42,9 klux 293 W/m
24.06.2016 14:20 23,8 C 12,0 C 22,8 C 76 % 1015,6 hPa 0,0 l/m 21,6 km/h (4 Bft) W-NW45 285 5 min 81,2 klux 555 W/m
24.06.2016 14:25 24,2 C 12,0 C 23,0 C 75 % 1015,6 hPa 0,0 l/m 19,3 km/h (3 Bft) W-NW45 285 5 min 72,2 klux 494 W/m
24.06.2016 14:30 24,2 C 12,0 C 22,7 C 73 % 1015,6 hPa 0,0 l/m 21,2 km/h (4 Bft) W-NW22.5 295 0 min 57,2 klux 391 W/m
24.06.2016 14:35 24,5 C 12,0 C 23,0 C 74 % 1015,6 hPa 0,0 l/m 23,8 km/h (4 Bft) W-NW22.5 285 0 min 64,5 klux 441 W/m
24.06.2016 14:40 24,2 C 12,0 C 22,7 C 73 % 1015,6 hPa 0,0 l/m 20,6 km/h (4 Bft) W-NW22.5 300 0 min 46,5 klux 318 W/m
24.06.2016 14:45 24,3 C 12,0 C 23,2 C 74 % 1015,6 hPa 0,0 l/m 20,5 km/h (4 Bft) W-NW22.5 285 5 min 81,3 klux 556 W/m
24.06.2016 14:50 24,3 C 12,0 C 23,1 C 73 % 1015,6 hPa 0,0 l/m 25,0 km/h (4 Bft) W-NW22.5 290 0 min 55,0 klux 376 W/m
24.06.2016 14:55 23,8 C 12,0 C 22,9 C 72 % 1015,6 hPa 0,0 l/m 25,8 km/h (4 Bft) W-NW22.5 295 0 min 42,1 klux 288 W/m
24.06.2016 15:00 23,7 C 12,0 C 22,6 C 74 % 1015,6 hPa 0,0 l/m 20,2 km/h (4 Bft) W-NW22.5 300 0 min 38,5 klux 263 W/m
24.06.2016 15:05 23,5 C 12,0 C 22,6 C 74 % 1016,6 hPa 0,0 l/m 25,0 km/h (4 Bft) W-NW45 285 0 min 32,5 klux 222 W/m
24.06.2016 15:10 23,1 C 12,0 C 22,4 C 75 % 1016,6 hPa 0,0 l/m 21,8 km/h (4 Bft) W-NW22.5 295 0 min 38,0 klux 260 W/m
24.06.2016 15:15 22,8 C 12,0 C 22,2 C 74 % 1016,6 hPa 0,0 l/m 20,6 km/h (4 Bft) W-NW22.5 295 0 min 24,0 klux 164 W/m
24.06.2016 15:20 22,8 C 12,0 C 22,3 C 74 % 1016,6 hPa 0,0 l/m 20,5 km/h (4 Bft) W-NW22.5 295 0 min 24,0 klux 164 W/m
24.06.2016 15:25 22,8 C 12,0 C 22,3 C 74 % 1016,6 hPa 0,0 l/m 17,4 km/h (3 Bft) W22.5 275 0 min 24,9 klux 170 W/m
24.06.2016 15:30 22,9 C 12,0 C 22,3 C 73 % 1016,6 hPa 0,0 l/m 18,0 km/h (3 Bft) W-NW22.5 295 0 min 28,1 klux 192 W/m
24.06.2016 15:35 23,4 C 12,0 C 22,8 C 74 % 1016,6 hPa 0,0 l/m 16,4 km/h (3 Bft) W-NW22.5 300 5 min 66,4 klux 454 W/m
24.06.2016 15:40 24,0 C 12,0 C 23,4 C 73 % 1016,6 hPa 0,0 l/m 17,3 km/h (3 Bft) NW67.5 305 5 min 103 klux 705 W/m
24.06.2016 15:45 24,4 C 12,0 C 23,5 C 70 % 1016,6 hPa 0,0 l/m 17,1 km/h (3 Bft) W-NW45 290 0 min 50,0 klux 342 W/m
24.06.2016 15:50 24,4 C 12,0 C 23,2 C 68 % 1015,6 hPa 0,0 l/m 15,6 km/h (3 Bft) NW22.5 310 5 min 86,3 klux 590 W/m
24.06.2016 15:55 24,7 C 12,0 C 23,5 C 71 % 1015,6 hPa 0,0 l/m 18,7 km/h (3 Bft) NW45 305 5 min 91,0 klux 622 W/m
24.06.2016 16:00 24,8 C 12,0 C 24,0 C 69 % 1015,6 hPa 0,0 l/m 17,0 km/h (3 Bft) W-NW22.5 285 5 min 85,2 klux 583 W/m
24.06.2016 16:05 24,9 C 12,0 C 24,1 C 67 % 1015,6 hPa 0,0 l/m 16,2 km/h (3 Bft) NW22.5 305 5 min 82,8 klux 566 W/m
24.06.2016 16:10 25,0 C 12,0 C 24,1 C 67 % 1015,6 hPa 0,0 l/m 17,3 km/h (3 Bft) W-NW45 285 5 min 81,2 klux 555 W/m
24.06.2016 16:15 25,2 C 12,0 C 23,8 C 67 % 1015,6 hPa 0,0 l/m 12,4 km/h (2 Bft) W-NW22.5 295 0 min 57,8 klux 395 W/m
24.06.2016 16:20 24,9 C 12,0 C 23,9 C 66 % 1015,6 hPa 0,0 l/m 16,1 km/h (3 Bft) NW22.5 320 5 min 60,1 klux 411 W/m
24.06.2016 16:25 25,0 C 12,0 C 23,9 C 66 % 1015,6 hPa 0,0 l/m 15,5 km/h (3 Bft) NW22.5 305 5 min 79,5 klux 544 W/m
24.06.2016 16:30 25,0 C 12,0 C 24,4 C 66 % 1015,6 hPa 0,0 l/m 16,5 km/h (3 Bft) W-NW22.5 295 5 min 79,5 klux 544 W/m
24.06.2016 16:35 25,2 C 12,0 C 24,3 C 66 % 1015,6 hPa 0,0 l/m 13,6 km/h (3 Bft) W-NW22.5 300 5 min 71,4 klux 488 W/m
24.06.2016 16:40 25,3 C 12,0 C 24,9 C 65 % 1015,6 hPa 0,0 l/m 15,2 km/h (3 Bft) W-NW45 290 5 min 73,2 klux 501 W/m
24.06.2016 16:45 25,3 C 12,0 C 25,0 C 66 % 1015,6 hPa 0,0 l/m 16,1 km/h (3 Bft) W22.5 275 5 min 71,1 klux 486 W/m
24.06.2016 16:50 25,2 C 12,0 C 24,3 C 65 % 1015,6 hPa 0,0 l/m 13,6 km/h (3 Bft) W-NW22.5 295 0 min 52,7 klux 360 W/m
24.06.2016 16:54 24,8 C 12,0 C 24,0 C 66 % 1015,6 hPa 0,0 l/m 14,6 km/h (3 Bft) W-NW22.5 295 0 min 22,0 klux 150 W/m
24.06.2016 17:00 24,6 C 12,0 C 23,9 C 66 % 1015,6 hPa 0,0 l/m 11,0 km/h (2 Bft) W-NW 285 0 min 20,6 klux 141 W/m
24.06.2016 17:05 24,5 C 12,0 C 23,8 C 67 % 1015,6 hPa 0,0 l/m 12,9 km/h (3 Bft) NW45 310 0 min 18,6 klux 127 W/m
24.06.2016 17:09 24,5 C 12,0 C 23,6 C 67 % 1015,6 hPa 0,0 l/m 9,1 km/h (2 Bft) NW22.5 315 0 min 17,5 klux 120 W/m
24.06.2016 17:15 24,4 C 12,0 C 23,6 C 68 % 1015,6 hPa 0,0 l/m 9,5 km/h (2 Bft) W-NW22.5 285 0 min 20,8 klux 142 W/m
24.06.2016 17:20 24,4 C 12,0 C 23,6 C 68 % 1015,6 hPa 0,0 l/m 11,9 km/h (2 Bft) W-NW45 300 0 min 27,1 klux 185 W/m
24.06.2016 17:25 24,5 C 12,0 C 23,6 C 68 % 1015,6 hPa 0,0 l/m 14,2 km/h (3 Bft) W-NW22.5 295 0 min 38,8 klux 265 W/m
24.06.2016 17:30 24,6 C 12,0 C 24,0 C 67 % 1015,6 hPa 0,0 l/m 15,1 km/h (3 Bft) W-NW22.5 290 5 min 56,6 klux 387 W/m
24.06.2016 17:35 24,5 C 12,0 C 23,9 C 68 % 1015,6 hPa 0,0 l/m 12,5 km/h (2 Bft) W-NW22.5 295 0 min 14,6 klux 100 W/m
24.06.2016 17:40 24,0 C 12,0 C 23,6 C 70 % 1015,6 hPa 0,0 l/m 12,5 km/h (2 Bft) W-NW22.5 295 0 min 14,1 klux 96 W/m
24.06.2016 17:45 24,0 C 12,0 C 23,5 C 71 % 1015,6 hPa 0,0 l/m 15,3 km/h (3 Bft) NW45 305 0 min 18,3 klux 125 W/m
24.06.2016 17:50 24,0 C 12,0 C 23,5 C 70 % 1015,6 hPa 0,0 l/m 10,0 km/h (2 Bft) NW22.5 305 0 min 15,1 klux 103 W/m
24.06.2016 17:55 23,8 C 12,0 C 23,2 C 70 % 1015,6 hPa 0,0 l/m 12,9 km/h (3 Bft) W-NW22.5 295 0 min 11,7 klux 80 W/m
24.06.2016 18:00 23,5 C 12,0 C 23,2 C 71 % 1015,6 hPa 0,0 l/m 16,2 km/h (3 Bft) W-NW45 290 0 min 10,4 klux 71 W/m
24.06.2016 18:05 23,4 C 12,0 C 23,1 C 72 % 1015,6 hPa 0,0 l/m 12,5 km/h (2 Bft) W-NW45 295 0 min 12,7 klux 87 W/m
24.06.2016 18:10 23,4 C 12,0 C 23,1 C 71 % 1015,6 hPa 0,0 l/m 13,8 km/h (3 Bft) NW22.5 325 0 min 13,3 klux 91 W/m
24.06.2016 18:15 23,4 C 12,0 C 23,1 C 70 % 1015,6 hPa 0,0 l/m 9,5 km/h (2 Bft) NW45 325 0 min 27,2 klux 186 W/m
24.06.2016 18:19 23,6 C 12,0 C 23,1 C 70 % 1015,6 hPa 0,0 l/m 10,3 km/h (2 Bft) NW45 320 0 min 21,3 klux 146 W/m
24.06.2016 18:25 23,7 C 12,0 C 23,1 C 69 % 1015,6 hPa 0,0 l/m 12,3 km/h (2 Bft) NW22.5 320 0 min 21,8 klux 149 W/m
24.06.2016 18:30 23,8 C 12,0 C 23,1 C 69 % 1015,6 hPa 0,0 l/m 12,3 km/h (2 Bft) NW22.5 310 0 min 16,1 klux 110 W/m
24.06.2016 18:35 23,7 C 12,0 C 23,1 C 69 % 1015,6 hPa 0,0 l/m 12,5 km/h (2 Bft) W-NW22.5 295 0 min 15,0 klux 103 W/m
24.06.2016 18:40 23,7 C 12,0 C 23,0 C 70 % 1015,6 hPa 0,0 l/m 4,5 km/h (1 Bft) W-NW 285 0 min 16,0 klux 109 W/m
24.06.2016 18:44 23,8 C 12,0 C 23,1 C 70 % 1015,6 hPa 0,0 l/m 7,4 km/h (2 Bft) N-NW22.5 330 0 min 17,1 klux 117 W/m
24.06.2016 18:50 23,6 C 12,0 C 23,0 C 70 % 1015,6 hPa 0,0 l/m 9,3 km/h (2 Bft) NW67.5 315 0 min 14,4 klux 98 W/m
24.06.2016 18:55 23,5 C 12,0 C 23,1 C 70 % 1015,6 hPa 0,0 l/m 10,1 km/h (2 Bft) W-NW45 295 0 min 9,0 klux 62 W/m
24.06.2016 19:00 23,4 C 12,0 C 23,1 C 70 % 1015,6 hPa 0,0 l/m 1,3 km/h (1 Bft) N-NW22.5 335 0 min 9,0 klux 62 W/m
24.06.2016 19:05 23,2 C 12,0 C 23,0 C 70 % 1015,6 hPa 0,0 l/m 10,8 km/h (2 Bft) NW22.5 325 0 min 8,37 klux 57 W/m
24.06.2016 19:10 23,1 C 12,0 C 23,0 C 71 % 1015,6 hPa 0,0 l/m 10,8 km/h (2 Bft) NW22.5 325 0 min 8,83 klux 60 W/m
24.06.2016 19:15 23,0 C 12,0 C 22,8 C 71 % 1015,6 hPa 0,0 l/m 7,2 km/h (2 Bft) NW45 320 0 min 8,26 klux 56 W/m
24.06.2016 19:20 23,0 C 12,0 C 22,8 C 71 % 1015,6 hPa 0,0 l/m 8,9 km/h (2 Bft) NW45 310 0 min 6,23 klux 43 W/m
24.06.2016 19:25 22,9 C 12,0 C 22,7 C 72 % 1015,6 hPa 0,0 l/m 11,3 km/h (2 Bft) N-NW22.5 340 0 min 5,89 klux 40 W/m
24.06.2016 19:29 22,9 C 12,0 C 22,7 C 71 % 1015,6 hPa 0,0 l/m 7,5 km/h (2 Bft) N22.5 350 0 min 5,88 klux 40 W/m
24.06.2016 19:35 22,8 C 12,0 C 22,8 C 72 % 1015,6 hPa 0,0 l/m 1,8 km/h (1 Bft) NW22.5 315 0 min 5,17 klux 35 W/m
24.06.2016 19:40 22,7 C 12,0 C 22,7 C 72 % 1015,6 hPa 0,0 l/m 0,5 km/h (0 Bft) W-NW 285 0 min 6,09 klux 42 W/m
24.06.2016 19:45 22,6 C 12,0 C 22,6 C 72 % 1015,6 hPa 0,0 l/m 7,9 km/h (2 Bft) NW45 320 0 min 5,00 klux 34 W/m
24.06.2016 19:50 22,6 C 12,0 C 22,6 C 73 % 1015,6 hPa 0,0 l/m 0,9 km/h (0 Bft) N-NW 340 0 min 4,69 klux 32 W/m
24.06.2016 19:54 22,5 C 12,0 C 22,6 C 73 % 1015,6 hPa 0,0 l/m 1,4 km/h (1 Bft) N-NW22.5 335 0 min 4,87 klux 33 W/m
24.06.2016 20:00 22,6 C 12,0 C 22,6 C 73 % 1015,6 hPa 0,0 l/m 0,0 km/h (0 Bft) N-NW 335 0 min 5,68 klux 39 W/m
24.06.2016 20:05 22,5 C 12,0 C 22,6 C 74 % 1015,6 hPa 0,0 l/m 0,0 km/h (0 Bft) N-NW 330 0 min 5,63 klux 39 W/m
24.06.2016 20:10 22,4 C 12,0 C 22,6 C 73 % 1015,6 hPa 0,0 l/m 0,0 km/h (0 Bft) N-NW 335 0 min 6,11 klux 42 W/m
24.06.2016 20:15 22,4 C 12,0 C 22,6 C 73 % 1015,6 hPa 0,0 l/m 0,8 km/h (0 Bft) N-NW 330 0 min 6,57 klux 45 W/m
24.06.2016 20:20 22,4 C 12,0 C 22,5 C 72 % 1015,6 hPa 0,0 l/m 1,9 km/h (1 Bft) N22.5 350 0 min 11,7 klux 80 W/m
24.06.2016 20:25 22,8 C 12,0 C 22,6 C 72 % 1015,6 hPa 0,0 l/m 0,6 km/h (0 Bft) N 355 0 min 12,4 klux 85 W/m
24.06.2016 20:30 23,0 C 12,0 C 22,5 C 72 % 1015,6 hPa 0,0 l/m 0,7 km/h (0 Bft) N 355 0 min 13,8 klux 94 W/m
24.06.2016 20:35 23,2 C 12,0 C 22,5 C 71 % 1015,6 hPa 0,0 l/m 0,6 km/h (0 Bft) N 5 0 min 11,1 klux 76 W/m
24.06.2016 20:40 23,0 C 12,0 C 22,6 C 70 % 1015,6 hPa 0,0 l/m 11,0 km/h (2 Bft) N22.5 350 0 min 9,2 klux 63 W/m
24.06.2016 20:45 22,9 C 12,0 C 22,6 C 71 % 1015,6 hPa 0,0 l/m 0,8 km/h (0 Bft) N 355 0 min 8,56 klux 59 W/m
24.06.2016 20:50 22,9 C 12,0 C 22,5 C 71 % 1015,6 hPa 0,0 l/m 11,0 km/h (2 Bft) N22.5 10 0 min 7,16 klux 49 W/m
24.06.2016 20:55 22,8 C 12,0 C 22,4 C 71 % 1015,6 hPa 0,0 l/m 8,9 km/h (2 Bft) N22.5 5 0 min 5,67 klux 39 W/m
24.06.2016 21:00 22,6 C 12,0 C 22,3 C 72 % 1015,6 hPa 0,0 l/m 0,7 km/h (0 Bft) N 5 0 min 4,18 klux 29 W/m
24.06.2016 21:05 22,5 C 12,0 C 22,3 C 72 % 1015,6 hPa 0,0 l/m 7,2 km/h (2 Bft) N-NW 335 0 min 3,13 klux 21 W/m
24.06.2016 21:10 22,2 C 12,0 C 22,3 C 72 % 1015,6 hPa 0,0 l/m 7,9 km/h (2 Bft) N-NW22.5 345 0 min 3,06 klux 21 W/m
24.06.2016 21:15 22,1 C 12,0 C 22,3 C 72 % 1015,6 hPa 0,0 l/m 1,0 km/h (0 Bft) N22.5 350 0 min 1,69 klux 12 W/m
24.06.2016 21:19 22,0 C 12,0 C 22,3 C 72 % 1015,6 hPa 0,0 l/m 7,0 km/h (2 Bft) N-NW45 340 0 min 1,17 klux 8 W/m
24.06.2016 21:25 21,9 C 12,0 C 22,2 C 73 % 1015,6 hPa 0,0 l/m 1,3 km/h (1 Bft) N-NW22.5 335 0 min 1,00 klux 7 W/m
24.06.2016 21:30 21,9 C 12,0 C 22,2 C 73 % 1015,6 hPa 0,0 l/m 10,1 km/h (2 Bft) N-NW22.5 340 0 min 805 lux 6 W/m
24.06.2016 21:35 21,9 C 12,0 C 22,1 C 73 % 1015,6 hPa 0,0 l/m 5,8 km/h (2 Bft) N-NW22.5 340 0 min 658 lux 5 W/m
24.06.2016 21:40 21,8 C 12,0 C 22,1 C 73 % 1015,6 hPa 0,0 l/m 1,5 km/h (1 Bft) N-NW22.5 340 0 min 620 lux 4 W/m
24.06.2016 21:45 21,8 C 12,0 C 22,0 C 73 % 1015,6 hPa 0,0 l/m 1,0 km/h (0 Bft) N 360 0 min 434 lux 3 W/m
24.06.2016 21:50 21,8 C 12,0 C 22,0 C 73 % 1015,6 hPa 0,0 l/m 1,0 km/h (0 Bft) N 360 0 min 426 lux 0 W/m
24.06.2016 21:55 21,8 C 12,0 C 22,0 C 73 % 1015,6 hPa 0,0 l/m 1,0 km/h (0 Bft) N 355 0 min 316 lux 0 W/m
24.06.2016 22:00 21,6 C 12,0 C 22,0 C 73 % 1015,6 hPa 0,0 l/m 0,1 km/h (0 Bft) N 355 0 min 264 lux 0 W/m
24.06.2016 22:05 21,5 C 12,0 C 21,9 C 74 % 1015,6 hPa 0,0 l/m 0,6 km/h (0 Bft) N 355 0 min 177 lux 0 W/m
24.06.2016 22:10 21,5 C 12,0 C 21,9 C 74 % 1015,6 hPa 0,0 l/m 5,6 km/h (2 Bft) N 355 0 min 115 lux 0 W/m
24.06.2016 22:15 21,3 C 12,0 C 21,8 C 74 % 1015,6 hPa 0,0 l/m 6,0 km/h (2 Bft) N 360 0 min 67 lux 0 W/m
24.06.2016 22:20 21,3 C 12,0 C 21,9 C 74 % 1015,6 hPa 0,0 l/m 1,2 km/h (1 Bft) N22.5 360 0 min 37 lux 0 W/m
24.06.2016 22:25 21,2 C 12,0 C 21,9 C 74 % 1015,6 hPa 0,0 l/m 0,0 km/h (0 Bft) N 360 0 min 19 lux 0 W/m
24.06.2016 22:29 21,1 C 12,0 C 21,9 C 74 % 1015,6 hPa 0,0 l/m 0,1 km/h (0 Bft) N 360 0 min 19 lux 0 W/m
24.06.2016 22:35 20,8 C 12,0 C 21,8 C 75 % 1015,7 hPa 0,0 l/m 0,0 km/h (0 Bft) N 360 0 min 4 lux 0 W/m
24.06.2016 22:40 20,8 C 12,0 C 21,8 C 75 % 1015,7 hPa 0,0 l/m 0,3 km/h (0 Bft) N 360 0 min 0 lux 0 W/m
24.06.2016 22:45 20,8 C 12,0 C 21,7 C 75 % 1015,7 hPa 0,0 l/m 0,0 km/h (0 Bft) N 360 0 min 0 lux 0 W/m
24.06.2016 22:50 20,8 C 12,0 C 21,7 C 75 % 1015,7 hPa 0,0 l/m 2,8 km/h (1 Bft) N 360 0 min 0 lux 0 W/m
24.06.2016 22:54 20,8 C 12,0 C 21,7 C 75 % 1015,7 hPa 0,0 l/m 0,0 km/h (0 Bft) N 360 0 min 0 lux 0 W/m
24.06.2016 23:00 20,8 C 12,0 C 21,8 C 75 % 1015,7 hPa 0,0 l/m 0,3 km/h (0 Bft) N 360 0 min 0 lux 0 W/m
24.06.2016 23:05 20,8 C 12,0 C 21,8 C 75 % 1015,7 hPa 0,0 l/m 1,0 km/h (0 Bft) N22.5 360 0 min 0 lux 0 W/m
24.06.2016 23:10 20,8 C 12,0 C 21,7 C 76 % 1015,7 hPa 0,0 l/m 6,5 km/h (2 Bft) N-NW22.5 340 0 min 0 lux 0 W/m
24.06.2016 23:15 20,8 C 12,0 C 21,8 C 75 % 1015,7 hPa 0,0 l/m 2,2 km/h (1 Bft) N-NW22.5 335 0 min 0 lux 0 W/m
24.06.2016 23:20 20,7 C 12,0 C 21,7 C 75 % 1015,7 hPa 0,0 l/m 8,9 km/h (2 Bft) NW22.5 315 0 min 0 lux 0 W/m
24.06.2016 23:25 20,6 C 12,0 C 21,7 C 75 % 1015,7 hPa 0,0 l/m 8,2 km/h (2 Bft) NW 310 0 min 0 lux 0 W/m
24.06.2016 23:30 20,5 C 12,0 C 21,7 C 75 % 1015,7 hPa 0,0 l/m 9,0 km/h (2 Bft) NW22.5 310 0 min 0 lux 0 W/m
24.06.2016 23:35 20,5 C 12,0 C 21,6 C 75 % 1015,7 hPa 0,0 l/m 7,5 km/h (2 Bft) NW45 315 0 min 0 lux 0 W/m
24.06.2016 23:40 20,4 C 12,0 C 21,7 C 75 % 1015,7 hPa 0,0 l/m 2,1 km/h (1 Bft) NW22.5 310 0 min 0 lux 0 W/m
24.06.2016 23:45 20,2 C 12,0 C 21,7 C 75 % 1015,7 hPa 0,0 l/m 10,5 km/h (2 Bft) NW22.5 320 0 min 0 lux 0 W/m
24.06.2016 23:50 20,2 C 12,0 C 21,5 C 75 % 1015,7 hPa 0,0 l/m 12,5 km/h (2 Bft) NW45 315 0 min 0 lux 0 W/m
24.06.2016 23:55 20,1 C 12,0 C 21,5 C 75 % 1015,7 hPa 0,0 l/m 9,8 km/h (2 Bft) NW45 305 0 min 0 lux 0 W/m
_ Min-Zeit 05:40 00:00 07:10 16:40 08:10 - 01:30 - - - - -
Minimum _ 19,4 C 12,0 C 20,4 C 65 % 1013,7 hPa - 0,0 km/h (0 Bft) - - - - -
_ Max-Zeit 16:40 00:00 16:45 04:05 00:00 03:40 06:35 - - 10:15 15:40 15:40
Maximum _ 25,3 C 12,0 C 25,0 C 89 % 1016,7 hPa 0,6 l/m 35,7 km/h
W-NW (5 Bft)
- - 6 min 103 klux 705 W/m
Durchschnitt _ 21,8 C 12,0 C 22,2 C 79 % 1015,3 hPa #2,5 l/m 9,9 km/h (2 Bft) W-NW - #2:40 h 19,1 klux 191 W/m